createdAt,value
2019-05-22T00:00:23.230Z,1008.50
2019-05-22T00:01:23.269Z,1008.49
2019-05-22T00:02:23.286Z,1008.52
2019-05-22T00:03:23.316Z,1008.53
2019-05-22T00:04:23.374Z,1008.55
2019-05-22T00:05:23.363Z,1008.50
2019-05-22T00:06:23.387Z,1008.52
2019-05-22T00:07:23.415Z,1008.59
2019-05-22T00:08:23.457Z,1008.60
2019-05-22T00:09:23.469Z,1008.61
2019-05-22T00:10:23.700Z,1008.62
2019-05-22T00:11:23.524Z,1008.61
2019-05-22T00:12:23.563Z,1008.65
2019-05-22T00:13:23.579Z,1008.68
2019-05-22T00:14:23.606Z,1008.66
2019-05-22T00:15:23.628Z,1008.69
2019-05-22T00:16:23.654Z,1008.64
2019-05-22T00:17:23.683Z,1008.69
2019-05-22T00:18:23.712Z,1008.73
2019-05-22T00:19:23.744Z,1008.72
2019-05-22T00:20:23.767Z,1008.73
2019-05-22T00:21:23.789Z,1008.69
2019-05-22T00:22:23.817Z,1008.74
2019-05-22T00:23:23.843Z,1008.72
2019-05-22T00:24:23.873Z,1008.74
2019-05-22T00:25:23.897Z,1008.73
2019-05-22T00:26:23.924Z,1008.71
2019-05-22T00:27:23.958Z,1008.71
2019-05-22T00:28:23.979Z,1008.76
2019-05-22T00:29:24.010Z,1008.75
2019-05-22T00:30:24.032Z,1008.78
2019-05-22T00:31:24.060Z,1008.73
2019-05-22T00:32:24.090Z,1008.78
2019-05-22T00:33:24.113Z,1008.78
2019-05-22T00:34:24.137Z,1008.74
2019-05-22T00:35:24.621Z,1008.74
2019-05-22T00:36:24.202Z,1008.71
2019-05-22T00:37:24.242Z,1008.74
2019-05-22T00:38:24.247Z,1008.73
2019-05-22T00:39:24.271Z,1008.71
2019-05-22T00:40:24.298Z,1008.74
2019-05-22T00:41:24.331Z,1008.71
2019-05-22T00:42:24.352Z,1008.77
2019-05-22T00:43:24.381Z,1008.72
2019-05-22T00:44:24.432Z,1008.77
2019-05-22T00:45:24.435Z,1008.75
2019-05-22T00:46:24.482Z,1008.80
2019-05-22T00:47:24.486Z,1008.78
2019-05-22T00:48:24.515Z,1008.78
2019-05-22T00:49:24.538Z,1008.79
2019-05-22T00:50:24.569Z,1008.77
2019-05-22T00:51:24.602Z,1008.80
2019-05-22T00:52:24.622Z,1008.80
2019-05-22T00:53:24.649Z,1008.71
2019-05-22T00:54:24.677Z,1008.73
2019-05-22T00:55:24.703Z,1008.74
2019-05-22T00:56:24.735Z,1008.77
2019-05-22T00:57:24.755Z,1008.76
2019-05-22T00:58:24.790Z,1008.78
2019-05-22T00:59:24.814Z,1008.80
2019-05-22T01:00:24.836Z,1008.77
2019-05-22T01:01:24.863Z,1008.76
2019-05-22T01:02:24.887Z,1008.81
2019-05-22T01:03:24.923Z,1008.81
2019-05-22T01:04:24.951Z,1008.88
2019-05-22T01:05:24.978Z,1008.89
2019-05-22T01:06:25.005Z,1008.94
2019-05-22T01:07:25.031Z,1008.92
2019-05-22T01:08:25.059Z,1008.93
2019-05-22T01:09:25.083Z,1008.96
2019-05-22T01:10:25.112Z,1008.98
2019-05-22T01:11:25.139Z,1009.04
2019-05-22T01:12:25.212Z,1009.05
2019-05-22T01:13:25.189Z,1009.01
2019-05-22T01:14:25.228Z,1009.02
2019-05-22T01:15:25.246Z,1009.06
2019-05-22T01:16:25.312Z,1009.07
2019-05-22T01:17:25.301Z,1009.12
2019-05-22T01:18:25.325Z,1009.12
2019-05-22T01:19:25.363Z,1009.09
2019-05-22T01:20:25.379Z,1009.07
2019-05-22T01:21:25.406Z,1009.08
2019-05-22T01:22:25.433Z,1009.06
2019-05-22T01:23:25.459Z,1009.08
2019-05-22T01:24:25.491Z,1009.07
2019-05-22T01:25:25.512Z,1009.10
2019-05-22T01:26:25.542Z,1009.07
2019-05-22T01:27:25.565Z,1009.07
2019-05-22T01:28:25.604Z,1009.10
2019-05-22T01:29:25.622Z,1009.06
2019-05-22T01:30:25.647Z,1009.05
2019-05-22T01:31:25.675Z,1009.08
2019-05-22T01:32:25.700Z,1009.10
2019-05-22T01:33:25.728Z,1009.06
2019-05-22T01:34:25.755Z,1009.06
2019-05-22T01:35:25.782Z,1009.06
2019-05-22T01:36:25.808Z,1009.02
2019-05-22T01:37:25.836Z,1009.01
2019-05-22T01:38:25.873Z,1009.01
2019-05-22T01:39:25.890Z,1009.01
2019-05-22T01:40:25.917Z,1009.00
2019-05-22T01:41:25.939Z,1008.96
2019-05-22T01:42:25.968Z,1008.96
2019-05-22T01:43:25.995Z,1008.95
2019-05-22T01:44:26.022Z,1009.00
2019-05-22T01:45:26.050Z,1008.96
2019-05-22T01:46:26.121Z,1008.99
2019-05-22T01:47:26.102Z,1008.97
2019-05-22T01:48:26.131Z,1009.02
2019-05-22T01:49:26.154Z,1009.00
2019-05-22T01:50:26.183Z,1009.07
2019-05-22T01:51:26.215Z,1008.97
2019-05-22T01:52:26.238Z,1009.01
2019-05-22T01:53:26.264Z,1008.98
2019-05-22T01:54:26.289Z,1009.00
2019-05-22T01:55:26.340Z,1009.03
2019-05-22T01:56:26.337Z,1009.02
2019-05-22T01:57:26.364Z,1009.02
2019-05-22T01:58:26.388Z,1009.04
2019-05-22T01:59:26.416Z,1009.05
2019-05-22T02:00:26.445Z,1009.07
2019-05-22T02:01:26.470Z,1009.08
2019-05-22T02:02:26.501Z,1009.09
2019-05-22T02:03:26.523Z,1009.07
2019-05-22T02:04:26.551Z,1009.09
2019-05-22T02:05:26.577Z,1009.13
2019-05-22T02:06:26.604Z,1009.09
2019-05-22T02:07:26.639Z,1009.15
2019-05-22T02:08:26.662Z,1009.13
2019-05-22T02:09:26.691Z,1009.12
2019-05-22T02:10:26.710Z,1009.11
2019-05-22T02:11:26.737Z,1009.13
2019-05-22T02:12:26.766Z,1009.14
2019-05-22T02:13:26.792Z,1009.17
2019-05-22T02:14:26.817Z,1009.20
2019-05-22T02:15:26.842Z,1009.22
2019-05-22T02:16:26.874Z,1009.22
2019-05-22T02:17:26.898Z,1009.22
2019-05-22T02:18:26.925Z,1009.26
2019-05-22T02:19:26.951Z,1009.25
2019-05-22T02:20:26.980Z,1009.26
2019-05-22T02:21:27.005Z,1009.25
2019-05-22T02:22:27.035Z,1009.24
2019-05-22T02:23:27.060Z,1009.27
2019-05-22T02:24:27.086Z,1009.25
2019-05-22T02:25:27.119Z,1009.30
2019-05-22T02:26:27.140Z,1009.23
2019-05-22T02:27:27.164Z,1009.25
2019-05-22T02:28:27.193Z,1009.24
2019-05-22T02:29:27.219Z,1009.28
2019-05-22T02:30:27.255Z,1009.26
2019-05-22T02:31:27.272Z,1009.28
2019-05-22T02:32:27.302Z,1009.22
2019-05-22T02:33:27.328Z,1009.32
2019-05-22T02:34:27.429Z,1009.28
2019-05-22T02:35:27.386Z,1009.27
2019-05-22T02:36:27.405Z,1009.25
2019-05-22T02:37:27.439Z,1009.29
2019-05-22T02:38:27.457Z,1009.28
2019-05-22T02:39:27.485Z,1009.39
2019-05-22T02:40:27.512Z,1009.35
2019-05-22T02:41:27.545Z,1009.34
2019-05-22T02:42:27.567Z,1009.37
2019-05-22T02:43:27.594Z,1009.40
2019-05-22T02:44:27.621Z,1009.41
2019-05-22T02:45:27.644Z,1009.41
2019-05-22T02:46:27.675Z,1009.46
2019-05-22T02:47:27.700Z,1009.46
2019-05-22T02:48:27.744Z,1009.43
2019-05-22T02:49:27.750Z,1009.44
2019-05-22T02:50:27.779Z,1009.43
2019-05-22T02:51:27.807Z,1009.40
2019-05-22T02:52:27.833Z,1009.43
2019-05-22T02:53:27.857Z,1009.42
2019-05-22T02:54:27.890Z,1009.44
2019-05-22T02:55:27.921Z,1009.40
2019-05-22T02:56:27.944Z,1009.47
2019-05-22T02:57:27.967Z,1009.44
2019-05-22T02:58:27.998Z,1009.49
2019-05-22T02:59:28.018Z,1009.46
2019-05-22T03:00:28.048Z,1009.46
2019-05-22T03:01:28.077Z,1009.47
2019-05-22T03:02:28.113Z,1009.48
2019-05-22T03:03:28.127Z,1009.45
2019-05-22T03:04:28.172Z,1009.53
2019-05-22T03:05:28.178Z,1009.53
2019-05-22T03:06:28.206Z,1009.54
2019-05-22T03:07:28.233Z,1009.57
2019-05-22T03:08:28.259Z,1009.57
2019-05-22T03:09:28.285Z,1009.55
2019-05-22T03:10:28.312Z,1009.58
2019-05-22T03:11:28.339Z,1009.61
2019-05-22T03:12:28.366Z,1009.62
2019-05-22T03:13:28.395Z,1009.58
2019-05-22T03:14:28.418Z,1009.60
2019-05-22T03:15:28.447Z,1009.57
2019-05-22T03:16:28.475Z,1009.60
2019-05-22T03:17:28.506Z,1009.60
2019-05-22T03:18:28.527Z,1009.62
2019-05-22T03:19:28.552Z,1009.64
2019-05-22T03:20:28.580Z,1009.62
2019-05-22T03:21:28.602Z,1009.64
2019-05-22T03:22:28.716Z,1009.64
2019-05-22T03:23:28.657Z,1009.64
2019-05-22T03:24:28.685Z,1009.70
2019-05-22T03:25:28.709Z,1009.67
2019-05-22T03:26:28.739Z,1009.60
2019-05-22T03:27:28.764Z,1009.65
2019-05-22T03:28:28.789Z,1009.65
2019-05-22T03:29:28.819Z,1009.62
2019-05-22T03:30:31.465Z,1009.65
2019-05-22T03:31:28.873Z,1009.67
2019-05-22T03:32:28.896Z,1009.66
2019-05-22T03:33:28.929Z,1009.74
2019-05-22T03:34:28.948Z,1009.75
2019-05-22T03:35:28.984Z,1009.69
2019-05-22T03:36:29.006Z,1009.76
2019-05-22T03:37:29.034Z,1009.75
2019-05-22T03:38:29.056Z,1009.71
2019-05-22T03:39:29.094Z,1009.76
2019-05-22T03:40:29.120Z,1009.74
2019-05-22T03:41:29.137Z,1009.79
2019-05-22T03:42:29.160Z,1009.78
2019-05-22T03:43:29.189Z,1009.77
2019-05-22T03:44:29.217Z,1009.73
2019-05-22T03:45:29.240Z,1009.79
2019-05-22T03:46:29.268Z,1009.82
2019-05-22T03:47:29.296Z,1009.78
2019-05-22T03:48:29.323Z,1009.75
2019-05-22T03:49:31.044Z,1009.75
2019-05-22T03:50:29.385Z,1009.76
2019-05-22T03:51:29.404Z,1009.76
2019-05-22T03:52:29.425Z,1009.75
2019-05-22T03:53:29.470Z,1009.75
2019-05-22T03:54:29.479Z,1009.75
2019-05-22T03:55:29.506Z,1009.80
2019-05-22T03:56:29.534Z,1009.77
2019-05-22T03:57:29.561Z,1009.73
2019-05-22T03:58:29.587Z,1009.80
2019-05-22T03:59:29.613Z,1009.83
2019-05-22T04:00:29.653Z,1009.86
2019-05-22T04:01:29.665Z,1009.88
2019-05-22T04:02:29.691Z,1009.86
2019-05-22T04:03:29.716Z,1009.89
2019-05-22T04:04:29.742Z,1009.88
2019-05-22T04:05:29.773Z,1009.89
2019-05-22T04:06:29.794Z,1009.91
2019-05-22T04:07:29.822Z,1009.90
2019-05-22T04:08:29.859Z,1009.87
2019-05-22T04:09:29.872Z,1009.88
2019-05-22T04:10:29.904Z,1009.87
2019-05-22T04:11:29.928Z,1009.91
2019-05-22T04:12:29.955Z,1009.97
2019-05-22T04:13:29.984Z,1009.99
2019-05-22T04:14:30.009Z,1009.90
2019-05-22T04:15:30.035Z,1009.98
2019-05-22T04:16:30.066Z,1009.95
2019-05-22T04:17:30.089Z,1009.99
2019-05-22T04:18:30.114Z,1010.02
2019-05-22T04:19:47.474Z,1010.02
2019-05-22T04:20:30.168Z,1010.03
2019-05-22T04:21:30.265Z,1010.09
2019-05-22T04:22:30.221Z,1010.11
2019-05-22T04:23:30.244Z,1010.12
2019-05-22T04:24:30.273Z,1010.13
2019-05-22T04:25:30.297Z,1010.14
2019-05-22T04:26:30.355Z,1010.09
2019-05-22T04:27:30.352Z,1010.14
2019-05-22T04:28:30.377Z,1010.16
2019-05-22T04:29:30.403Z,1010.21
2019-05-22T04:30:30.437Z,1010.19
2019-05-22T04:31:30.457Z,1010.14
2019-05-22T04:32:30.487Z,1010.23
2019-05-22T04:33:30.513Z,1010.21
2019-05-22T04:34:30.549Z,1010.20
2019-05-22T04:35:30.560Z,1010.25
2019-05-22T04:36:30.596Z,1010.28
2019-05-22T04:37:30.615Z,1010.21
2019-05-22T04:38:30.647Z,1010.24
2019-05-22T04:39:30.666Z,1010.27
2019-05-22T04:40:30.694Z,1010.28
2019-05-22T04:41:30.734Z,1010.29
2019-05-22T04:42:30.746Z,1010.24
2019-05-22T04:43:30.781Z,1010.28
2019-05-22T04:44:30.798Z,1010.26
2019-05-22T04:45:30.824Z,1010.21
2019-05-22T04:46:30.850Z,1010.27
2019-05-22T04:48:30.909Z,1010.25
2019-05-22T04:49:30.925Z,1010.23
2019-05-22T04:50:30.961Z,1010.22
2019-05-22T04:51:31.010Z,1010.26
2019-05-22T04:52:31.014Z,1010.29
2019-05-22T04:53:31.031Z,1010.28
2019-05-22T04:54:31.061Z,1010.29
2019-05-22T04:55:31.086Z,1010.28
2019-05-22T04:56:31.133Z,1010.32
2019-05-22T04:57:31.135Z,1010.36
2019-05-22T04:58:31.167Z,1010.34
2019-05-22T04:59:31.192Z,1010.35
2019-05-22T05:00:31.227Z,1010.34
2019-05-22T05:01:31.254Z,1010.33
2019-05-22T05:02:31.271Z,1010.32
2019-05-22T05:03:31.301Z,1010.34
2019-05-22T05:04:31.322Z,1010.34
2019-05-22T05:05:31.351Z,1010.35
2019-05-22T05:06:31.383Z,1010.33
2019-05-22T05:07:31.504Z,1010.43
2019-05-22T05:08:31.431Z,1010.37
2019-05-22T05:09:31.462Z,1010.39
2019-05-22T05:10:31.482Z,1010.41
2019-05-22T05:11:31.508Z,1010.46
2019-05-22T05:12:31.536Z,1010.45
2019-05-22T05:13:31.559Z,1010.51
2019-05-22T05:14:31.592Z,1010.52
2019-05-22T05:15:31.617Z,1010.48
2019-05-22T05:16:31.674Z,1010.58
2019-05-22T05:17:31.665Z,1010.55
2019-05-22T05:18:31.691Z,1010.56
2019-05-22T05:19:31.720Z,1010.53
2019-05-22T05:20:31.747Z,1010.54
2019-05-22T05:21:31.775Z,1010.53
2019-05-22T05:22:31.804Z,1010.58
2019-05-22T05:23:31.833Z,1010.55
2019-05-22T05:24:31.855Z,1010.56
2019-05-22T05:25:31.882Z,1010.58
2019-05-22T05:26:31.902Z,1010.54
2019-05-22T05:27:31.928Z,1010.59
2019-05-22T05:28:31.956Z,1010.55
2019-05-22T05:29:31.981Z,1010.55
2019-05-22T05:30:32.013Z,1010.56
2019-05-22T05:31:32.035Z,1010.62
2019-05-22T05:32:32.102Z,1010.59
2019-05-22T05:33:32.087Z,1010.63
2019-05-22T05:34:32.119Z,1010.64
2019-05-22T05:35:32.139Z,1010.65
2019-05-22T05:36:32.172Z,1010.70
2019-05-22T05:37:32.199Z,1010.64
2019-05-22T05:38:32.220Z,1010.71
2019-05-22T05:39:32.248Z,1010.69
2019-05-22T05:40:32.275Z,1010.67
2019-05-22T05:41:32.300Z,1010.67
2019-05-22T05:42:32.325Z,1010.74
2019-05-22T05:43:32.351Z,1010.73
2019-05-22T05:44:32.387Z,1010.71
2019-05-22T05:45:32.404Z,1010.77
2019-05-22T05:46:32.432Z,1010.72
2019-05-22T05:47:32.462Z,1010.75
2019-05-22T05:48:32.486Z,1010.71
2019-05-22T05:49:32.513Z,1010.74
2019-05-22T05:50:39.610Z,1010.77
2019-05-22T05:51:32.562Z,1010.73
2019-05-22T05:52:32.591Z,1010.82
2019-05-22T05:53:32.617Z,1010.77
2019-05-22T05:54:32.643Z,1010.81
2019-05-22T05:55:32.672Z,1010.82
2019-05-22T05:56:32.697Z,1010.72
2019-05-22T05:57:32.729Z,1010.78
2019-05-22T05:58:32.755Z,1010.74
2019-05-22T05:59:32.781Z,1010.81
2019-05-22T06:00:32.805Z,1010.80
2019-05-22T06:01:32.830Z,1010.79
2019-05-22T06:02:32.854Z,1010.81
2019-05-22T06:03:32.886Z,1010.79
2019-05-22T06:04:35.125Z,1010.75
2019-05-22T06:05:32.937Z,1010.82
2019-05-22T06:06:32.962Z,1010.79
2019-05-22T06:07:32.986Z,1010.81
2019-05-22T06:08:33.020Z,1010.87
2019-05-22T06:09:33.041Z,1010.87
2019-05-22T06:10:33.066Z,1010.86
2019-05-22T06:11:33.093Z,1010.88
2019-05-22T06:12:33.120Z,1010.83
2019-05-22T06:13:33.154Z,1010.86
2019-05-22T06:14:33.179Z,1010.87
2019-05-22T06:15:45.790Z,1010.85
2019-05-22T06:16:33.228Z,1010.81
2019-05-22T06:17:33.251Z,1010.87
2019-05-22T06:18:33.280Z,1010.85
2019-05-22T06:19:33.316Z,1010.86
2019-05-22T06:20:33.334Z,1010.88
2019-05-22T06:21:33.365Z,1010.90
2019-05-22T06:22:33.387Z,1010.90
2019-05-22T06:23:33.414Z,1010.94
2019-05-22T06:24:33.440Z,1010.95
2019-05-22T06:25:33.473Z,1010.93
2019-05-22T06:26:33.491Z,1010.96
2019-05-22T06:27:33.527Z,1010.95
2019-05-22T06:28:33.545Z,1010.94
2019-05-22T06:29:33.571Z,1010.95
2019-05-22T06:30:33.598Z,1010.96
2019-05-22T06:31:33.627Z,1010.93
2019-05-22T06:32:33.653Z,1010.98
2019-05-22T06:33:33.678Z,1010.96
2019-05-22T06:34:33.706Z,1010.98
2019-05-22T06:35:33.735Z,1010.94
2019-05-22T06:36:33.759Z,1010.94
2019-05-22T06:37:33.790Z,1010.95
2019-05-22T06:38:33.816Z,1010.95
2019-05-22T06:39:33.847Z,1010.93
2019-05-22T06:40:33.869Z,1010.93
2019-05-22T06:41:33.900Z,1010.98
2019-05-22T06:42:33.925Z,1010.97
2019-05-22T06:43:33.957Z,1011.07
2019-05-22T06:44:33.983Z,1011.09
2019-05-22T06:45:35.637Z,1011.11
2019-05-22T06:46:34.032Z,1011.09
2019-05-22T06:47:34.054Z,1011.11
2019-05-22T06:48:34.084Z,1011.13
2019-05-22T06:49:34.109Z,1011.19
2019-05-22T06:50:34.141Z,1011.16
2019-05-22T06:51:34.162Z,1011.17
2019-05-22T06:52:34.190Z,1011.18
2019-05-22T06:53:34.225Z,1011.19
2019-05-22T06:54:34.453Z,1011.16
2019-05-22T06:55:34.270Z,1011.17
2019-05-22T06:56:34.299Z,1011.18
2019-05-22T06:57:34.324Z,1011.17
2019-05-22T06:58:34.349Z,1011.20
2019-05-22T06:59:34.377Z,1011.27
2019-05-22T07:00:34.410Z,1011.21
2019-05-22T07:01:34.431Z,1011.22
2019-05-22T07:02:34.455Z,1011.23
2019-05-22T07:03:34.485Z,1011.23
2019-05-22T07:04:34.513Z,1011.28
2019-05-22T07:05:34.534Z,1011.33
2019-05-22T07:06:34.593Z,1011.36
2019-05-22T07:07:34.589Z,1011.32
2019-05-22T07:08:34.618Z,1011.35
2019-05-22T07:09:34.650Z,1011.40
2019-05-22T07:10:34.669Z,1011.41
2019-05-22T07:11:34.706Z,1011.39
2019-05-22T07:12:34.730Z,1011.46
2019-05-22T07:13:34.748Z,1011.46
2019-05-22T07:14:34.777Z,1011.45
2019-05-22T07:15:34.808Z,1011.44
2019-05-22T07:16:34.838Z,1011.51
2019-05-22T07:17:34.857Z,1011.48
2019-05-22T07:18:34.884Z,1011.52
2019-05-22T07:19:34.924Z,1011.55
2019-05-22T07:20:34.938Z,1011.54
2019-05-22T07:21:34.963Z,1011.51
2019-05-22T07:22:34.991Z,1011.48
2019-05-22T07:23:35.017Z,1011.59
2019-05-22T07:24:35.046Z,1011.59
2019-05-22T07:25:35.069Z,1011.58
2019-05-22T07:26:35.095Z,1011.58
2019-05-22T07:27:35.124Z,1011.61
2019-05-22T07:28:35.153Z,1011.56
2019-05-22T07:29:35.176Z,1011.60
2019-05-22T07:30:35.210Z,1011.58
2019-05-22T07:31:35.230Z,1011.57
2019-05-22T07:32:35.261Z,1011.55
2019-05-22T07:33:35.305Z,1011.54
2019-05-22T07:34:35.311Z,1011.58
2019-05-22T07:36:35.363Z,1011.55
2019-05-22T07:37:35.393Z,1011.53
2019-05-22T07:38:35.425Z,1011.55
2019-05-22T07:39:35.451Z,1011.55
2019-05-22T07:40:35.573Z,1011.58
2019-05-22T07:41:35.505Z,1011.51
2019-05-22T07:42:35.531Z,1011.56
2019-05-22T07:43:40.758Z,1011.57
2019-05-22T07:44:35.580Z,1011.56
2019-05-22T07:45:35.614Z,1011.53
2019-05-22T07:46:35.631Z,1011.56
2019-05-22T07:47:35.670Z,1011.47
2019-05-22T07:48:35.688Z,1011.48
2019-05-22T07:49:35.715Z,1011.51
2019-05-22T07:50:35.801Z,1011.47
2019-05-22T07:51:50.517Z,1011.55
2019-05-22T07:52:35.795Z,1011.55
2019-05-22T07:53:35.826Z,1011.53
2019-05-22T07:54:35.846Z,1011.59
2019-05-22T07:55:35.875Z,1011.54
2019-05-22T07:56:35.997Z,1011.55
2019-05-22T07:57:36.123Z,1011.59
2019-05-22T07:58:35.967Z,1011.57
2019-05-22T07:59:35.977Z,1011.62
2019-05-22T08:00:36.005Z,1011.61
2019-05-22T08:01:36.035Z,1011.54
2019-05-22T08:02:36.061Z,1011.56
2019-05-22T08:03:36.139Z,1011.60
2019-05-22T08:04:36.112Z,1011.59
2019-05-22T08:05:36.140Z,1011.61
2019-05-22T08:06:36.164Z,1011.60
2019-05-22T08:07:36.223Z,1011.58
2019-05-22T08:08:36.220Z,1011.60
2019-05-22T08:09:36.244Z,1011.67
2019-05-22T08:10:36.283Z,1011.65
2019-05-22T08:11:36.299Z,1011.68
2019-05-22T08:12:36.333Z,1011.66
2019-05-22T08:13:36.352Z,1011.62
2019-05-22T08:14:36.382Z,1011.69
2019-05-22T08:15:36.438Z,1011.66
2019-05-22T08:16:36.440Z,1011.67
2019-05-22T08:17:36.466Z,1011.70
2019-05-22T08:18:36.498Z,1011.68
2019-05-22T08:19:36.515Z,1011.65
2019-05-22T08:20:36.540Z,1011.71
2019-05-22T08:21:36.573Z,1011.72
2019-05-22T08:22:36.595Z,1011.64
2019-05-22T08:23:36.625Z,1011.69
2019-05-22T08:24:36.650Z,1011.64
2019-05-22T08:25:36.679Z,1011.62
2019-05-22T08:26:53.201Z,1011.66
2019-05-22T08:27:36.728Z,1011.65
2019-05-22T08:28:36.758Z,1011.65
2019-05-22T08:29:36.782Z,1011.64
2019-05-22T08:30:36.816Z,1011.66
2019-05-22T08:31:36.841Z,1011.66
2019-05-22T08:32:36.864Z,1011.71
2019-05-22T08:33:36.893Z,1011.65
2019-05-22T08:34:36.918Z,1011.69
2019-05-22T08:35:36.945Z,1011.67
2019-05-22T08:36:38.688Z,1011.68
2019-05-22T08:37:37.003Z,1011.68
2019-05-22T08:38:37.035Z,1011.66
2019-05-22T08:39:37.053Z,1011.68
2019-05-22T08:40:37.089Z,1011.68
2019-05-22T08:41:37.146Z,1011.70
2019-05-22T08:42:37.133Z,1011.71
2019-05-22T08:44:03.156Z,1011.69
2019-05-22T08:44:37.190Z,1011.71
2019-05-22T08:45:37.280Z,1011.68
2019-05-22T08:46:37.248Z,1011.74
2019-05-22T08:47:37.271Z,1011.76
2019-05-22T08:48:50.037Z,1011.78
2019-05-22T08:49:37.324Z,1011.80
2019-05-22T08:50:37.352Z,1011.78
2019-05-22T08:51:37.382Z,1011.83
2019-05-22T08:52:37.409Z,1011.81
2019-05-22T08:53:46.774Z,1011.85
2019-05-22T08:54:37.462Z,1011.86
2019-05-22T08:55:37.669Z,1011.84
2019-05-22T08:56:37.521Z,1011.87
2019-05-22T08:57:37.540Z,1011.85
2019-05-22T08:58:37.574Z,1011.85
2019-05-22T08:59:37.605Z,1011.87
2019-05-22T09:00:37.626Z,1011.88
2019-05-22T09:01:37.651Z,1011.88
2019-05-22T09:02:37.683Z,1011.89
2019-05-22T09:03:37.702Z,1011.90
2019-05-22T09:04:37.731Z,1011.92
2019-05-22T09:05:37.761Z,1011.94
2019-05-22T09:06:37.788Z,1011.92
2019-05-22T09:07:37.820Z,1011.98
2019-05-22T09:08:37.844Z,1011.95
2019-05-22T09:09:37.866Z,1011.94
2019-05-22T09:10:37.895Z,1011.96
2019-05-22T09:11:37.919Z,1011.93
2019-05-22T09:12:37.955Z,1011.92
2019-05-22T09:13:37.975Z,1011.90
2019-05-22T09:14:38.068Z,1011.94
2019-05-22T09:15:38.033Z,1011.95
2019-05-22T09:16:38.078Z,1011.94
2019-05-22T09:17:38.083Z,1011.98
2019-05-22T09:18:38.112Z,1011.93
2019-05-22T09:19:38.143Z,1011.92
2019-05-22T09:20:48.631Z,1011.97
2019-05-22T09:21:40.551Z,1011.95
2019-05-22T09:22:41.148Z,1011.97
2019-05-22T09:23:38.244Z,1012.00
2019-05-22T09:24:38.272Z,1012.00
2019-05-22T09:25:38.299Z,1012.01
2019-05-22T09:26:38.329Z,1012.02
2019-05-22T09:27:38.353Z,1012.01
2019-05-22T09:28:38.386Z,1012.00
2019-05-22T09:29:38.417Z,1012.05
2019-05-22T09:30:38.437Z,1012.05
2019-05-22T09:31:38.462Z,1012.02
2019-05-22T09:32:38.495Z,1012.00
2019-05-22T09:33:38.517Z,1012.01
2019-05-22T09:34:38.546Z,1012.02
2019-05-22T09:35:38.572Z,1012.08
2019-05-22T09:36:38.598Z,1012.12
2019-05-22T09:37:38.625Z,1012.12
2019-05-22T09:38:38.654Z,1012.11
2019-05-22T09:39:38.683Z,1012.10
2019-05-22T09:40:38.709Z,1012.13
2019-05-22T09:41:38.743Z,1012.16
2019-05-22T09:42:38.767Z,1012.19
2019-05-22T09:43:38.810Z,1012.20
2019-05-22T09:44:38.824Z,1012.23
2019-05-22T09:45:38.846Z,1012.28
2019-05-22T09:46:38.872Z,1012.26
2019-05-22T09:47:38.899Z,1012.32
2019-05-22T09:48:38.929Z,1012.26
2019-05-22T09:49:38.961Z,1012.25
2019-05-22T09:50:38.991Z,1012.24
2019-05-22T09:51:39.009Z,1012.19
2019-05-22T09:52:39.040Z,1012.21
2019-05-22T09:53:39.064Z,1012.31
2019-05-22T09:54:39.106Z,1012.28
2019-05-22T09:55:39.121Z,1012.27
2019-05-22T09:56:39.148Z,1012.31
2019-05-22T09:57:39.181Z,1012.37
2019-05-22T09:58:39.209Z,1012.33
2019-05-22T09:59:39.234Z,1012.30
2019-05-22T10:00:39.263Z,1012.34
2019-05-22T10:01:39.287Z,1012.37
2019-05-22T10:02:39.312Z,1012.39
2019-05-22T10:03:39.349Z,1012.33
2019-05-22T10:04:39.379Z,1012.30
2019-05-22T10:05:39.490Z,1012.31
2019-05-22T10:06:39.424Z,1012.43
2019-05-22T10:07:57.050Z,1012.36
2019-05-22T10:08:39.480Z,1012.35
2019-05-22T10:09:39.508Z,1012.50
2019-05-22T10:10:39.643Z,1012.34
2019-05-22T10:11:39.567Z,1012.34
2019-05-22T10:12:39.597Z,1012.34
2019-05-22T10:13:39.710Z,1012.38
2019-05-22T10:14:39.676Z,1012.40
2019-05-22T10:15:39.678Z,1012.59
2019-05-22T10:16:39.710Z,1013.22
2019-05-22T10:17:39.735Z,1012.91
2019-05-22T10:18:39.770Z,1012.40
2019-05-22T10:19:39.799Z,1012.28
2019-05-22T10:20:39.822Z,1012.33
2019-05-22T10:21:39.850Z,1012.33
2019-05-22T10:22:39.880Z,1012.35
2019-05-22T10:23:39.908Z,1012.27
2019-05-22T10:24:39.946Z,1012.31
2019-05-22T10:25:39.970Z,1013.76
2019-05-22T10:26:40.016Z,1013.73
2019-05-22T10:27:40.045Z,1012.57
2019-05-22T10:28:40.055Z,1012.65
2019-05-22T10:29:40.211Z,1013.90
2019-05-22T10:30:40.113Z,1012.40
2019-05-22T10:31:40.147Z,1012.43
2019-05-22T10:32:40.175Z,1012.35
2019-05-22T10:33:40.220Z,1012.33
2019-05-22T10:34:40.235Z,1012.31
2019-05-22T10:35:41.077Z,1012.26
2019-05-22T10:36:43.133Z,1012.26
2019-05-22T10:37:40.324Z,1012.31
2019-05-22T10:38:40.354Z,1012.27
2019-05-22T10:39:43.007Z,1012.46
2019-05-22T10:40:40.419Z,1013.25
2019-05-22T10:41:40.442Z,1012.41
2019-05-22T10:42:44.399Z,1012.34
2019-05-22T10:43:40.502Z,1012.30
2019-05-22T10:44:40.534Z,1012.30
2019-05-22T10:45:40.567Z,1012.41
2019-05-22T10:46:40.590Z,1012.36
2019-05-22T10:47:40.624Z,1012.42
2019-05-22T10:48:40.940Z,1012.96
2019-05-22T10:49:40.693Z,1012.37
2019-05-22T10:50:40.711Z,1013.89
2019-05-22T10:51:40.743Z,1013.81
2019-05-22T10:52:40.775Z,1013.24
2019-05-22T10:53:40.833Z,1013.63
2019-05-22T10:54:40.838Z,1013.27
2019-05-22T10:55:40.862Z,1012.29
2019-05-22T10:56:40.894Z,1013.34
2019-05-22T10:57:41.582Z,1013.27
2019-05-22T10:58:40.957Z,1013.21
2019-05-22T10:59:41.012Z,1012.35
2019-05-22T11:00:41.031Z,1013.17
2019-05-22T11:01:41.052Z,1013.11
2019-05-22T11:02:41.092Z,1012.70
2019-05-22T11:03:41.121Z,1012.29
2019-05-22T11:04:41.155Z,1012.94
2019-05-22T11:05:41.185Z,1012.83
2019-05-22T11:06:41.213Z,1012.79
2019-05-22T11:07:41.249Z,1012.48
2019-05-22T11:08:41.280Z,1012.47
2019-05-22T11:09:41.314Z,1012.67
2019-05-22T11:10:45.053Z,1012.62
2019-05-22T11:11:41.379Z,1012.28
2019-05-22T11:12:41.414Z,1012.59
2019-05-22T11:13:41.445Z,1012.34
2019-05-22T11:14:41.480Z,1012.71
2019-05-22T11:15:41.512Z,1012.71
2019-05-22T11:16:41.548Z,1012.28
2019-05-22T11:17:41.581Z,1012.68
2019-05-22T11:18:41.613Z,1012.74
2019-05-22T11:19:41.649Z,1012.72
2019-05-22T11:20:41.688Z,1012.75
2019-05-22T11:21:41.728Z,1012.80
2019-05-22T11:22:41.749Z,1012.79
2019-05-22T11:23:51.931Z,1012.82
2019-05-22T11:24:41.818Z,1012.93
2019-05-22T11:25:41.860Z,1012.97
2019-05-22T11:26:41.888Z,1012.99
2019-05-22T11:27:41.921Z,1012.94
2019-05-22T11:28:41.976Z,1012.97
2019-05-22T11:29:41.998Z,1013.01
2019-05-22T11:30:42.032Z,1013.07
2019-05-22T11:31:42.067Z,1012.24
2019-05-22T11:32:42.099Z,1012.19
2019-05-22T11:33:42.133Z,1012.95
2019-05-22T11:34:42.165Z,1012.39
2019-05-22T11:35:42.206Z,1012.12
2019-05-22T11:36:42.236Z,1012.93
2019-05-22T11:37:42.273Z,1013.00
2019-05-22T11:38:42.305Z,1012.97
2019-05-22T11:39:44.913Z,1012.02
2019-05-22T11:40:42.377Z,1013.00
2019-05-22T11:41:42.415Z,1012.98
2019-05-22T11:42:42.444Z,1012.93
2019-05-22T11:43:42.491Z,1012.98
2019-05-22T11:44:42.520Z,1012.98
2019-05-22T11:45:45.134Z,1012.96
2019-05-22T11:46:42.586Z,1012.95
2019-05-22T11:47:42.623Z,1012.33
2019-05-22T11:48:42.657Z,1013.01
2019-05-22T11:49:42.696Z,1012.92
2019-05-22T11:50:42.722Z,1013.02
2019-05-22T11:51:42.763Z,1013.01
2019-05-22T11:52:42.808Z,1013.05
2019-05-22T11:53:42.833Z,1013.04
2019-05-22T11:54:42.866Z,1013.03
2019-05-22T11:55:45.903Z,1013.00
2019-05-22T11:57:42.973Z,1013.06
2019-05-22T11:58:43.004Z,1013.04
2019-05-22T11:59:43.041Z,1013.01
2019-05-22T12:00:43.077Z,1013.09
2019-05-22T12:01:43.111Z,1012.03
2019-05-22T12:02:43.142Z,1012.16
2019-05-22T12:03:43.178Z,1012.14
2019-05-22T12:04:47.998Z,1013.13
2019-05-22T12:05:43.250Z,1013.15
2019-05-22T12:06:43.287Z,1012.86
2019-05-22T12:07:43.321Z,1011.92
2019-05-22T12:08:43.389Z,1011.87